Time;durP1;ratioP1;P1;durP2;ratioP2;P2;SDS_P1;SDS_P2;PMS_P1;PMS_P2;Temp;Humidity;BMP_temperature;BMP_pressure;BME280_temperature;BME280_humidity;BME280_pressure;Samples;Min_cycle;Max_cycle;Signal;HPM_P1;HPM_P2
2021/10/10 00:00:49;;;;;;;3.69;2.21;;;;;;;10.55;35.45;102365.67;450001;117;930654;-76
2021/10/10 00:01:53;;;;;;;9.68;2.47;;;;;;;10.52;35.45;102364.16;450098;116;922684;-75
2021/10/10 00:02:56;;;;;;;3.30;2.18;;;;;;;10.53;35.48;102362.28;449169;117;930704;-75
2021/10/10 00:04:00;;;;;;;3.25;2.46;;;;;;;10.51;35.44;102362.44;449892;116;922664;-76
2021/10/10 00:05:04;;;;;;;3.11;2.27;;;;;;;10.51;35.47;102362.44;449713;117;930352;-74
2021/10/10 00:06:08;;;;;;;2.78;2.22;;;;;;;10.50;35.47;102360.73;449604;117;922570;-75
2021/10/10 00:07:11;;;;;;;4.24;2.52;;;;;;;10.50;35.48;102368.06;450405;116;922865;-76
2021/10/10 00:08:15;;;;;;;4.35;2.29;;;;;;;10.50;35.47;102370.79;450122;116;922694;-77
2021/10/10 00:09:18;;;;;;;4.41;2.13;;;;;;;10.49;35.50;102366.34;450406;117;923063;-76
2021/10/10 00:10:22;;;;;;;2.41;2.21;;;;;;;10.49;35.51;102361.75;450305;117;922945;-76
2021/10/10 00:11:25;;;;;;;3.08;2.12;;;;;;;10.48;35.52;102357.31;450266;117;930340;-75
2021/10/10 00:12:28;;;;;;;4.37;2.01;;;;;;;10.48;35.56;102368.22;450065;117;922640;-76
2021/10/10 00:13:32;;;;;;;3.91;2.25;;;;;;;10.49;35.59;102353.57;450659;117;922853;-76
2021/10/10 00:14:35;;;;;;;2.38;2.11;;;;;;;10.49;35.61;102359.02;450326;116;922817;-76
2021/10/10 00:15:39;;;;;;;3.29;2.25;;;;;;;10.50;35.60;102362.61;450441;117;930412;-75
2021/10/10 00:16:42;;;;;;;2.33;2.12;;;;;;;10.50;35.58;102354.42;450001;117;922861;-76
2021/10/10 00:17:46;;;;;;;2.87;2.12;;;;;;;10.50;35.56;102357.15;450535;117;930327;-76
2021/10/10 00:18:50;;;;;;;3.24;2.16;;;;;;;10.49;35.57;102361.75;450163;116;930413;-75
2021/10/10 00:19:54;;;;;;;3.73;2.34;;;;;;;10.49;35.59;102361.75;449479;117;923288;-75
2021/10/10 00:20:58;;;;;;;2.61;2.32;;;;;;;10.50;35.61;102354.42;449853;116;930618;-76
2021/10/10 00:22:02;;;;;;;3.29;2.19;;;;;;;10.49;35.61;102361.75;450035;117;930483;-75
2021/10/10 00:23:05;;;;;;;2.58;1.98;;;;;;;10.49;35.57;102355.44;449890;116;930369;-76
2021/10/10 00:24:10;;;;;;;3.18;2.23;;;;;;;10.49;35.56;102349.98;449591;117;930480;-76
2021/10/10 00:25:14;;;;;;;2.46;2.21;;;;;;;10.49;35.55;102355.44;450165;116;923222;-76
2021/10/10 00:26:19;;;;;;;2.87;2.38;;;;;;;10.49;35.57;102353.57;449808;117;923062;-76
2021/10/10 00:27:23;;;;;;;4.09;2.23;;;;;;;10.49;35.56;102355.44;448917;116;922871;-76
2021/10/10 00:28:26;;;;;;;3.48;2.17;;;;;;;10.49;35.51;102350.84;448982;117;922727;-75
2021/10/10 00:29:30;;;;;;;2.66;2.12;;;;;;;10.48;35.55;102351.86;449270;117;930332;-74
2021/10/10 00:30:35;;;;;;;2.29;2.09;;;;;;;10.49;35.60;102350.84;450429;117;923138;-75
2021/10/10 00:31:38;;;;;;;3.31;2.58;;;;;;;10.49;35.58;102350.84;449488;117;922944;-74
2021/10/10 00:32:43;;;;;;;2.08;1.88;;;;;;;10.50;35.50;102351.70;449906;116;922975;-76
2021/10/10 00:33:46;;;;;;;2.78;2.05;;;;;;;10.48;35.48;102348.28;450483;117;930509;-75
2021/10/10 00:34:49;;;;;;;2.79;2.16;;;;;;;10.48;35.47;102353.73;450553;116;922971;-76
2021/10/10 00:35:53;;;;;;;2.04;1.87;;;;;;;10.48;35.54;102351.00;449596;117;923606;-76
2021/10/10 00:36:57;;;;;;;2.95;2.29;;;;;;;10.46;35.54;102340.29;450131;116;923237;-76
2021/10/10 00:38:01;;;;;;;3.30;2.17;;;;;;;10.47;35.57;102349.33;450301;117;922450;-75
2021/10/10 00:39:04;;;;;;;2.30;2.10;;;;;;;10.47;35.54;102349.33;450307;117;922567;-76
2021/10/10 00:40:09;;;;;;;3.98;2.38;;;;;;;10.47;35.56;102352.05;449882;115;922897;-76
2021/10/10 00:41:13;;;;;;;2.40;1.98;;;;;;;10.46;35.54;102353.92;450032;116;922797;-75
2021/10/10 00:42:16;;;;;;;3.35;2.41;;;;;;;10.45;35.59;102344.03;449914;116;923056;-75
2021/10/10 00:43:20;;;;;;;3.12;2.50;;;;;;;10.45;35.55;102352.22;449605;116;930606;-75
2021/10/10 00:44:23;;;;;;;3.56;1.89;;;;;;;10.45;35.59;102350.34;449354;115;923132;-76
2021/10/10 00:45:27;;;;;;;3.83;2.19;;;;;;;10.44;35.64;102343.17;449440;116;930389;-76
2021/10/10 00:46:30;;;;;;;3.37;2.21;;;;;;;10.45;35.63;102344.03;449029;117;930295;-75
2021/10/10 00:47:34;;;;;;;2.87;2.17;;;;;;;10.45;35.65;102350.34;449405;116;922534;-76
2021/10/10 00:48:38;;;;;;;2.68;2.40;;;;;;;10.45;35.70;102360.39;449606;115;922604;-75
2021/10/10 00:49:42;;;;;;;3.04;2.32;;;;;;;10.45;35.69;102354.94;450229;116;923077;-76
2021/10/10 00:50:47;;;;;;;2.46;2.09;;;;;;;10.46;35.71;102351.20;449499;117;922763;-75
2021/10/10 00:51:51;;;;;;;4.42;2.83;;;;;;;10.45;35.73;102349.48;449088;116;923745;-76
2021/10/10 00:52:55;;;;;;;4.77;2.69;;;;;;;10.47;35.75;102352.05;450142;115;931130;-75
2021/10/10 00:53:59;;;;;;;6.09;3.20;;;;;;;10.45;35.78;102350.34;449630;117;923068;-76
2021/10/10 00:55:03;;;;;;;4.06;3.43;;;;;;;10.46;35.81;102348.47;450050;116;923153;-76
2021/10/10 00:56:07;;;;;;;3.53;3.15;;;;;;;10.47;35.82;102352.05;450547;116;922867;-76
2021/10/10 00:57:12;;;;;;;3.76;3.26;;;;;;;10.45;35.84;102344.89;449651;115;923023;-74
2021/10/10 00:58:18;;;;;;;4.09;3.66;;;;;;;10.45;35.92;102349.48;449141;117;922944;-74
2021/10/10 00:59:23;;;;;;;4.03;3.25;;;;;;;10.45;35.91;102353.07;449507;116;923293;-75
2021/10/10 01:00:27;;;;;;;5.12;3.67;;;;;;;10.45;35.91;102347.61;449312;116;923034;-75
2021/10/10 01:01:30;;;;;;;5.21;3.62;;;;;;;10.45;35.91;102349.48;448886;116;923363;-75
2021/10/10 01:02:39;;;;;;;4.08;3.23;;;;;;;10.45;35.93;102349.48;449332;115;930647;-75
2021/10/10 01:03:42;;;;;;;4.59;3.12;;;;;;;10.44;35.91;102351.36;449688;117;922767;-77
2021/10/10 01:04:46;;;;;;;5.16;3.23;;;;;;;10.45;35.96;102342.16;449556;115;922595;-74
2021/10/10 01:05:50;;;;;;;3.22;2.94;;;;;;;10.45;36.00;102347.61;449340;117;922663;-75
2021/10/10 01:06:53;;;;;;;6.56;3.51;;;;;;;10.45;36.00;102361.25;449458;117;922603;-77
2021/10/10 01:07:57;;;;;;;4.29;2.84;;;;;;;10.45;35.98;102354.94;449153;117;922724;-76
2021/10/10 01:09:01;;;;;;;4.35;3.21;;;;;;;10.45;36.02;102352.22;450262;117;930738;-75
2021/10/10 01:10:06;;;;;;;4.27;3.80;;;;;;;10.44;36.03;102353.23;449850;116;930454;-75
2021/10/10 01:11:11;;;;;;;3.63;3.17;;;;;;;10.43;36.04;102351.52;449049;116;923113;-75
2021/10/10 01:12:16;;;;;;;3.53;3.13;;;;;;;10.42;36.06;102347.94;452687;115;922669;-75
2021/10/10 01:13:19;;;;;;;3.69;2.83;;;;;;;10.41;36.11;102354.44;455296;114;922607;-74
2021/10/10 01:14:23;;;;;;;2.86;2.54;;;;;;;10.42;36.14;102355.27;455017;115;922528;-76
2021/10/10 01:15:28;;;;;;;3.48;2.57;;;;;;;10.42;36.15;102355.27;455567;115;922646;-75
2021/10/10 01:16:33;;;;;;;2.92;2.46;;;;;;;10.42;36.19;102355.27;454218;116;923439;-74
2021/10/10 01:17:37;;;;;;;2.55;2.31;;;;;;;10.40;36.18;102355.46;455395;114;922705;-74
2021/10/10 01:18:40;;;;;;;2.51;2.31;;;;;;;10.41;36.20;102356.31;454558;115;930459;-76
2021/10/10 01:19:45;;;;;;;2.23;1.95;;;;;;;10.39;36.19;102356.48;454394;114;923134;-75
2021/10/10 01:20:50;;;;;;;2.27;1.98;;;;;;;10.40;36.20;102354.61;454131;115;922555;-76
2021/10/10 01:21:55;;;;;;;2.15;1.91;;;;;;;10.40;36.29;102351.87;453830;116;922864;-75
2021/10/10 01:22:59;;;;;;;2.91;2.15;;;;;;;10.40;36.30;102362.78;455096;115;922503;-75
2021/10/10 01:24:03;;;;;;;3.47;2.08;;;;;;;10.39;36.35;102361.08;453405;116;922591;-76
2021/10/10 01:25:09;;;;;;;3.87;2.08;;;;;;;10.38;36.38;102359.36;453092;114;922577;-76
2021/10/10 01:26:13;;;;;;;2.79;2.15;;;;;;;10.38;36.40;102360.22;452279;116;922522;-76
2021/10/10 01:27:16;;;;;;;3.60;2.01;;;;;;;10.38;36.43;102362.95;453639;115;922625;-75
2021/10/10 01:28:20;;;;;;;4.09;2.02;;;;;;;10.37;36.46;102354.93;453985;115;930534;-75
2021/10/10 01:29:23;;;;;;;2.40;1.72;;;;;;;10.37;36.53;102358.51;456346;116;931661;-75
2021/10/10 01:30:27;;;;;;;2.75;2.26;;;;;;;10.38;36.56;102357.49;450682;116;923082;-75
2021/10/10 01:31:31;;;;;;;3.67;2.47;;;;;;;10.36;36.61;102356.83;450023;116;923008;-76
2021/10/10 01:32:34;;;;;;;4.94;2.41;;;;;;;10.37;36.63;102353.05;455803;116;930368;-77
2021/10/10 01:33:38;;;;;;;2.26;1.92;;;;;;;10.36;36.68;102356.83;456328;116;922361;-75
2021/10/10 01:34:45;;;;;;;2.21;1.65;;;;;;;10.37;36.71;102360.38;455474;115;922910;-75
2021/10/10 01:35:49;;;;;;;2.49;2.13;;;;;;;10.36;36.73;102356.83;455273;116;922827;-75
2021/10/10 01:36:52;;;;;;;3.13;2.05;;;;;;;10.36;36.79;102359.55;454856;115;922962;-75
2021/10/10 01:37:56;;;;;;;3.22;1.83;;;;;;;10.35;36.79;102357.84;454832;116;931029;-74
2021/10/10 01:38:59;;;;;;;3.73;2.30;;;;;;;10.35;36.81;102359.72;454383;115;922674;-75
2021/10/10 01:40:03;;;;;;;3.39;1.98;;;;;;;10.34;36.86;102358.01;454375;115;922980;-74
2021/10/10 01:41:08;;;;;;;2.30;1.62;;;;;;;10.33;36.90;102361.75;454712;116;922919;-75
2021/10/10 01:42:11;;;;;;;3.02;2.16;;;;;;;10.32;36.97;102354.59;453439;116;923107;-75
2021/10/10 01:43:15;;;;;;;1.98;1.81;;;;;;;10.32;37.02;102355.45;454913;115;923523;-76
2021/10/10 01:44:18;;;;;;;1.73;1.56;;;;;;;10.32;37.07;102360.89;454200;115;930381;-75
2021/10/10 01:45:23;;;;;;;2.74;1.92;;;;;;;10.32;37.11;102360.89;454259;115;928875;-75
2021/10/10 01:46:27;;;;;;;2.91;1.86;;;;;;;10.32;37.14;102360.04;454495;116;922964;-74
2021/10/10 01:47:31;;;;;;;2.32;1.82;;;;;;;10.31;37.13;102359.19;440116;119;922567;-75
2021/10/10 01:48:34;;;;;;;2.54;1.85;;;;;;;10.30;37.17;102352.05;440302;119;922593;-76
2021/10/10 01:49:38;;;;;;;2.99;1.94;;;;;;;10.29;37.22;102350.34;439334;119;922673;-76
2021/10/10 01:50:43;;;;;;;2.53;1.76;;;;;;;10.29;37.26;102360.39;440382;119;930513;-76
2021/10/10 01:51:47;;;;;;;2.52;1.97;;;;;;;10.28;37.30;102353.23;440322;119;923169;-74
2021/10/10 01:52:50;;;;;;;2.59;1.97;;;;;;;10.27;37.36;102360.55;438842;120;930519;-74
2021/10/10 01:53:53;;;;;;;2.55;1.98;;;;;;;10.25;37.40;102351.72;438175;120;922804;-75
2021/10/10 01:54:57;;;;;;;4.67;2.06;;;;;;;10.25;37.43;102357.16;437875;119;923233;-76
2021/10/10 01:56:00;;;;;;;2.41;2.08;;;;;;;10.24;37.49;102357.33;440054;118;922966;-76
2021/10/10 01:57:05;;;;;;;2.31;2.07;;;;;;;10.23;37.49;102350.16;439979;118;923066;-75
2021/10/10 01:58:08;;;;;;;3.70;1.85;;;;;;;10.22;37.50;102352.03;440203;119;922608;-75
2021/10/10 01:59:12;;;;;;;3.12;2.04;;;;;;;10.21;37.53;102357.65;442023;119;930542;-75
2021/10/10 02:00:16;;;;;;;4.48;2.45;;;;;;;10.20;37.59;102356.79;437194;120;923245;-74
2021/10/10 02:01:20;;;;;;;4.29;2.47;;;;;;;10.19;37.62;102349.66;439360;118;930643;-75
2021/10/10 02:02:25;;;;;;;3.39;1.76;;;;;;;10.19;37.67;102352.39;442063;119;930866;-75
2021/10/10 02:03:28;;;;;;;2.39;2.20;;;;;;;10.17;37.70;102354.42;442767;119;923058;-74
2021/10/10 02:04:32;;;;;;;2.58;1.61;;;;;;;10.16;37.80;102355.44;442924;118;923205;-75
2021/10/10 02:05:36;;;;;;;4.41;2.17;;;;;;;10.15;37.88;102356.41;442488;119;922703;-75
2021/10/10 02:06:40;;;;;;;2.22;1.96;;;;;;;10.14;37.92;102357.47;442250;117;923164;-74
2021/10/10 02:07:45;;;;;;;4.74;2.19;;;;;;;10.14;37.96;102345.70;439821;118;923059;-74
2021/10/10 02:08:48;;;;;;;1.92;1.73;;;;;;;10.13;38.02;102354.90;438350;120;923232;-74
2021/10/10 02:09:51;;;;;;;3.67;2.54;;;;;;;10.12;38.04;102351.31;440876;119;922820;-75
2021/10/10 02:10:57;;;;;;;2.24;2.02;;;;;;;10.12;38.12;102351.31;441855;119;922514;-75
2021/10/10 02:12:00;;;;;;;2.33;2.12;;;;;;;10.11;38.16;102357.78;441851;118;922596;-75
2021/10/10 02:13:04;;;;;;;2.21;2.02;;;;;;;10.11;38.21;102354.20;442780;118;930512;-74
2021/10/10 02:14:08;;;;;;;3.51;2.62;;;;;;;10.09;38.28;102354.36;441271;118;930521;-77
2021/10/10 02:15:11;;;;;;;2.45;1.85;;;;;;;10.08;38.37;102355.41;442006;118;922530;-74
2021/10/10 02:16:15;;;;;;;2.35;2.15;;;;;;;10.07;38.46;102353.70;441119;119;930660;-75
2021/10/10 02:17:19;;;;;;;2.78;2.44;;;;;;;10.06;38.51;102357.44;441241;119;922874;-74
2021/10/10 02:18:23;;;;;;;2.66;1.95;;;;;;;10.05;38.61;102355.73;440818;118;922653;-74
2021/10/10 02:19:26;;;;;;;2.71;1.98;;;;;;;10.04;38.71;102356.74;441190;118;922987;-73
2021/10/10 02:20:30;;;;;;;6.97;2.49;;;;;;;10.03;38.80;102363.24;441453;118;922536;-75
2021/10/10 02:21:34;;;;;;;4.07;2.27;;;;;;;10.01;38.90;102357.95;442423;118;922653;-74
2021/10/10 02:22:37;;;;;;;2.74;2.50;;;;;;;10.02;38.96;102354.21;440628;118;926477;-75
2021/10/10 02:23:40;;;;;;;3.18;2.27;;;;;;;10.02;39.04;102361.53;441455;118;930490;-74
2021/10/10 02:24:44;;;;;;;3.29;2.26;;;;;;;10.00;39.11;102358.97;433734;121;930441;-74
2021/10/10 02:25:47;;;;;;;2.49;2.24;;;;;;;10.00;39.17;102358.97;440839;118;923094;-76
2021/10/10 02:26:53;;;;;;;4.92;2.20;;;;;;;10.00;39.18;102366.28;432788;121;923252;-75
2021/10/10 02:27:56;;;;;;;2.41;2.20;;;;;;;9.99;39.22;102367.30;448791;117;923033;-75
2021/10/10 02:28:59;;;;;;;3.11;2.08;;;;;;;9.98;39.23;102362.86;449375;117;923019;-75
2021/10/10 02:30:04;;;;;;;2.62;2.09;;;;;;;9.97;39.27;102364.77;448901;117;922783;-75
2021/10/10 02:31:07;;;;;;;3.43;2.72;;;;;;;9.96;39.35;102362.20;449463;117;922554;-74
2021/10/10 02:32:11;;;;;;;4.05;3.01;;;;;;;9.96;39.44;102362.20;449224;117;923072;-73
2021/10/10 02:33:17;;;;;;;2.86;2.52;;;;;;;9.95;39.46;102363.20;441612;118;930442;-74
2021/10/10 02:34:21;;;;;;;3.61;2.30;;;;;;;9.96;39.50;102362.20;440444;119;922799;-75
2021/10/10 02:35:24;;;;;;;2.86;2.51;;;;;;;9.95;39.52;102366.79;432880;121;922955;-75
2021/10/10 02:36:29;;;;;;;3.31;2.61;;;;;;;9.94;39.59;102359.63;441599;119;930438;-72
2021/10/10 02:37:35;;;;;;;2.72;2.17;;;;;;;9.92;39.65;102366.28;440913;118;923027;-75
2021/10/10 02:38:38;;;;;;;2.57;2.21;;;;;;;9.91;39.79;102354.53;432403;121;922752;-76
2021/10/10 02:39:42;;;;;;;3.09;2.24;;;;;;;9.91;39.97;102364.57;426297;122;922663;-74
2021/10/10 02:40:46;;;;;;;3.46;2.42;;;;;;;9.90;40.11;102366.44;441504;119;922551;-74
2021/10/10 02:41:49;;;;;;;4.20;2.27;;;;;;;9.87;40.23;102361.31;434863;120;922553;-74
2021/10/10 02:42:52;;;;;;;3.28;2.66;;;;;;;9.85;40.40;102365.23;438149;119;922547;-75
2021/10/10 02:43:56;;;;;;;3.64;2.44;;;;;;;9.82;40.52;102373.72;434027;121;923439;-76
2021/10/10 02:44:59;;;;;;;3.93;2.31;;;;;;;9.79;40.65;102361.30;434227;120;923028;-74
2021/10/10 02:46:02;;;;;;;5.79;2.18;;;;;;;9.78;40.73;102361.47;440805;118;922681;-75
2021/10/10 02:47:06;;;;;;;6.04;2.49;;;;;;;9.77;40.82;102365.20;441711;118;922630;-75
2021/10/10 02:48:09;;;;;;;4.54;2.47;;;;;;;9.76;40.86;102358.89;441808;118;922636;-76
2021/10/10 02:49:13;;;;;;;2.91;2.42;;;;;;;9.76;40.91;102358.89;441236;118;930668;-74
2021/10/10 02:50:18;;;;;;;4.34;2.39;;;;;;;9.77;40.93;102359.75;440780;119;923167;-74
2021/10/10 02:51:22;;;;;;;5.49;2.29;;;;;;;9.76;40.92;102358.89;433965;121;922569;-73
2021/10/10 02:52:26;;;;;;;2.82;2.22;;;;;;;9.78;40.88;102362.31;434221;120;922623;-74
2021/10/10 02:53:29;;;;;;;4.19;2.29;;;;;;;9.79;40.92;102360.45;436857;119;930454;-75
2021/10/10 02:54:32;;;;;;;5.55;3.91;;;;;;;9.78;40.97;102356.02;436669;119;922602;-75
2021/10/10 02:55:36;;;;;;;6.65;4.12;;;;;;;9.78;40.96;102365.05;436763;121;922642;-74
2021/10/10 02:56:42;;;;;;;5.78;3.65;;;;;;;9.79;40.95;102360.45;433361;121;922631;-75
2021/10/10 02:57:45;;;;;;;5.50;3.04;;;;;;;9.79;41.01;102360.45;433951;120;922728;-74
2021/10/10 02:58:48;;;;;;;3.26;2.92;;;;;;;9.79;41.07;102355.86;440995;119;930617;-74
2021/10/10 02:59:53;;;;;;;3.87;3.49;;;;;;;9.79;41.09;102363.17;432629;122;922552;-74
2021/10/10 03:00:57;;;;;;;4.25;2.99;;;;;;;9.78;41.09;102356.88;441127;118;930671;-72
2021/10/10 03:02:00;;;;;;;4.53;3.88;;;;;;;9.79;41.11;102357.73;441753;118;922678;-75
2021/10/10 03:03:04;;;;;;;4.21;3.81;;;;;;;9.79;41.13;102346.83;441265;118;923227;-74
2021/10/10 03:04:08;;;;;;;3.84;3.44;;;;;;;9.79;41.12;102346.83;440877;118;922559;-74
2021/10/10 03:05:11;;;;;;;4.26;3.28;;;;;;;9.78;41.12;102354.14;436631;120;922797;-75
2021/10/10 03:06:16;;;;;;;4.36;3.26;;;;;;;9.78;41.16;102358.73;433937;120;923036;-74
2021/10/10 03:07:19;;;;;;;3.81;2.86;;;;;;;9.78;41.20;102356.88;434345;121;923033;-74
2021/10/10 03:08:23;;;;;;;3.89;3.16;;;;;;;9.78;41.24;102356.02;441117;118;930717;-74
2021/10/10 03:09:26;;;;;;;5.47;2.61;;;;;;;9.78;41.25;102356.02;441463;120;922622;-72
2021/10/10 03:10:30;;;;;;;2.52;2.32;;;;;;;9.78;41.24;102358.73;433326;121;922660;-74
2021/10/10 03:11:33;;;;;;;4.75;2.42;;;;;;;9.79;41.29;102346.83;432669;120;923065;-74
2021/10/10 03:12:37;;;;;;;2.66;2.46;;;;;;;9.78;41.30;102350.56;433337;122;923200;-74
2021/10/10 03:13:40;;;;;;;3.73;2.55;;;;;;;9.78;41.30;102345.97;439073;120;923103;-74
2021/10/10 03:14:44;;;;;;;3.40;2.47;;;;;;;9.79;41.31;102346.83;455353;114;930582;-75
2021/10/10 03:15:47;;;;;;;3.65;2.54;;;;;;;9.79;41.35;102347.69;454092;114;922595;-72
2021/10/10 03:16:51;;;;;;;3.48;3.08;;;;;;;9.79;41.37;102346.83;454708;115;922620;-75
2021/10/10 03:17:55;;;;;;;5.44;4.06;;;;;;;9.80;41.39;102353.98;456084;116;922574;-74
2021/10/10 03:18:58;;;;;;;3.22;2.79;;;;;;;9.79;41.41;102342.23;454970;115;922933;-74
2021/10/10 03:20:03;;;;;;;4.67;3.02;;;;;;;9.79;41.41;102336.79;455598;114;923161;-75
2021/10/10 03:21:07;;;;;;;3.73;2.73;;;;;;;9.79;41.41;102335.94;454528;115;922636;-73
2021/10/10 03:22:10;;;;;;;3.33;2.71;;;;;;;9.79;41.42;102339.52;454840;115;922936;-74
2021/10/10 03:23:13;;;;;;;3.42;2.63;;;;;;;9.80;41.42;102337.64;455373;115;923027;-75
2021/10/10 03:24:17;;;;;;;4.94;2.86;;;;;;;9.79;41.42;102335.94;455893;114;922535;-75
2021/10/10 03:25:20;;;;;;;8.81;3.06;;;;;;;9.80;41.44;102332.20;454200;115;922608;-74
2021/10/10 03:26:25;;;;;;;5.41;3.29;;;;;;;9.80;41.50;102334.92;456216;116;923088;-74
2021/10/10 03:27:28;;;;;;;3.85;3.34;;;;;;;9.79;41.53;102342.23;455347;115;922966;-74
2021/10/10 03:28:32;;;;;;;4.75;3.39;;;;;;;9.79;41.56;102336.79;456000;114;922864;-75
2021/10/10 03:29:35;;;;;;;4.75;3.24;;;;;;;9.79;41.61;102336.79;455257;115;922526;-72
2021/10/10 03:30:40;;;;;;;3.71;3.10;;;;;;;9.79;41.67;102338.66;455656;116;922707;-75
2021/10/10 03:31:43;;;;;;;5.42;3.12;;;;;;;9.79;41.69;102335.94;455473;114;922599;-75
2021/10/10 03:32:47;;;;;;;4.40;3.92;;;;;;;9.79;41.71;102338.66;455868;115;928959;-73
2021/10/10 03:33:51;;;;;;;4.03;3.46;;;;;;;9.80;41.71;102340.37;455201;115;930557;-71
2021/10/10 03:34:54;;;;;;;4.93;3.59;;;;;;;9.80;41.76;102343.95;455010;115;923150;-74
2021/10/10 03:35:57;;;;;;;3.22;2.71;;;;;;;9.80;41.76;102343.95;454056;115;930566;-74
2021/10/10 03:37:01;;;;;;;4.27;2.96;;;;;;;9.81;41.76;102333.91;455745;114;922583;-74
2021/10/10 03:38:04;;;;;;;4.54;4.06;;;;;;;9.81;41.95;102342.94;455440;115;922520;-76
2021/10/10 03:39:07;;;;;;;5.43;4.16;;;;;;;9.81;41.95;102342.94;454994;115;930659;-72
2021/10/10 03:40:13;;;;;;;5.35;3.89;;;;;;;9.81;41.86;102333.91;452818;115;930558;-75
2021/10/10 03:41:16;;;;;;;5.52;3.35;;;;;;;9.81;41.85;102333.91;455604;114;923198;-74
2021/10/10 03:42:19;;;;;;;4.66;2.93;;;;;;;9.80;41.89;102333.05;456223;115;930498;-75
2021/10/10 03:43:23;;;;;;;6.76;3.55;;;;;;;9.81;41.99;102342.08;456541;115;922449;-77
2021/10/10 03:44:26;;;;;;;4.83;3.98;;;;;;;9.81;42.04;102333.91;455645;114;922692;-72
2021/10/10 03:45:30;;;;;;;7.91;5.09;;;;;;;9.80;42.05;102333.05;454039;115;922583;-74
2021/10/10 03:46:34;;;;;;;5.11;4.65;;;;;;;9.81;42.03;102334.77;455525;116;930581;-74
2021/10/10 03:47:37;;;;;;;4.02;3.05;;;;;;;9.81;42.03;102328.45;444297;116;922827;-74
2021/10/10 03:48:41;;;;;;;5.49;2.77;;;;;;;9.80;42.02;102330.33;445076;114;930627;-73
2021/10/10 03:49:44;;;;;;;3.36;3.02;;;;;;;9.81;42.09;102329.31;455421;115;922795;-75
2021/10/10 03:50:48;;;;;;;3.62;3.04;;;;;;;9.81;42.16;102333.91;454969;115;922551;-74
2021/10/10 03:51:51;;;;;;;5.53;3.22;;;;;;;9.80;42.16;102335.77;455340;115;922647;-72
2021/10/10 03:52:54;;;;;;;7.04;3.05;;;;;;;9.80;42.14;102332.20;455659;114;923137;-74
2021/10/10 03:56:16;;;;;;;4.24;2.89;;;;;;;9.79;42.16;102333.21;454905;115;922834;-74
2021/10/10 03:57:22;;;;;;;3.01;2.30;;;;;;;9.78;42.17;102335.08;454817;114;922604;-73
2021/10/10 03:58:25;;;;;;;3.47;2.45;;;;;;;9.78;42.15;102335.08;454622;115;930454;-73
2021/10/10 03:59:28;;;;;;;6.69;2.83;;;;;;;9.77;42.18;102332.52;454984;115;922569;-73
2021/10/10 04:00:33;;;;;;;4.81;2.81;;;;;;;9.76;42.20;102337.11;454054;115;923240;-74
2021/10/10 04:01:38;;;;;;;11.51;2.74;;;;;;;9.76;42.21;102328.11;455322;114;923335;-74
2021/10/10 04:02:43;;;;;;;2.91;2.16;;;;;;;9.76;42.30;102333.56;455552;115;923397;-73
2021/10/10 04:03:46;;;;;;;4.29;2.65;;;;;;;9.74;42.34;102330.13;454232;116;922759;-73
2021/10/10 04:04:55;;;;;;;7.74;3.18;;;;;;;9.74;42.35;102325.55;454889;115;922532;-75
2021/10/10 04:05:55;;;;;;;4.63;2.77;;;;;;;9.73;42.45;102332.00;454296;115;922820;-72
2021/10/10 04:06:59;;;;;;;6.96;2.86;;;;;;;9.72;42.48;102330.30;454991;115;922491;-75
2021/10/10 04:08:02;;;;;;;6.14;2.86;;;;;;;9.72;42.50;102323.99;455484;116;922465;-74
2021/10/10 04:09:06;;;;;;;4.86;3.02;;;;;;;9.70;42.58;102328.77;454194;114;923000;-75
2021/10/10 04:10:10;;;;;;;4.15;3.31;;;;;;;9.69;42.59;102327.92;455468;115;923200;-73
2021/10/10 04:11:13;;;;;;;4.73;4.23;;;;;;;9.68;42.58;102330.80;455565;116;922627;-74
2021/10/10 04:12:17;;;;;;;4.18;3.34;;;;;;;9.67;42.63;102339.98;454590;116;930602;-74
2021/10/10 04:13:20;;;;;;;13.51;3.34;;;;;;;9.64;42.66;102333.02;454974;115;930591;-74
2021/10/10 04:14:23;;;;;;;6.03;3.74;;;;;;;9.63;42.66;102334.88;450508;115;922703;-72
2021/10/10 04:15:27;;;;;;;4.47;2.72;;;;;;;9.63;42.73;102339.47;450819;115;922926;-72
2021/10/10 04:16:30;;;;;;;5.38;3.12;;;;;;;9.62;42.78;102335.04;450655;116;922629;-73
2021/10/10 04:17:34;;;;;;;6.21;3.60;;;;;;;9.60;42.83;102332.47;450352;115;922571;-74
2021/10/10 04:18:37;;;;;;;5.01;3.98;;;;;;;9.60;42.88;102332.47;449983;115;930790;-74
2021/10/10 04:19:41;;;;;;;4.48;3.92;;;;;;;9.59;42.92;102336.20;451116;116;922823;-73
2021/10/10 04:20:44;;;;;;;5.05;4.06;;;;;;;9.59;42.93;102332.66;451035;116;922646;-73
2021/10/10 04:21:48;;;;;;;3.93;3.21;;;;;;;9.57;42.99;102343.71;451146;115;923086;-74
2021/10/10 04:22:51;;;;;;;4.81;3.26;;;;;;;9.56;43.05;102333.83;451303;115;931095;-74
2021/10/10 04:23:54;;;;;;;4.16;3.62;;;;;;;9.55;43.09;102337.56;450296;115;922792;-76
2021/10/10 04:24:58;;;;;;;4.75;3.03;;;;;;;9.54;43.13;102338.58;451493;116;923195;-73
2021/10/10 04:26:02;;;;;;;4.79;3.04;;;;;;;9.54;43.17;102343.17;450779;115;923249;-74
2021/10/10 04:27:05;;;;;;;5.79;3.06;;;;;;;9.54;43.22;102343.17;450389;115;930548;-73
2021/10/10 04:28:08;;;;;;;5.68;3.21;;;;;;;9.53;43.24;102347.80;449331;115;922624;-73
2021/10/10 04:29:11;;;;;;;3.37;2.72;;;;;;;9.51;43.27;102338.92;450292;116;922941;-72
2021/10/10 04:30:15;;;;;;;4.72;3.57;;;;;;;9.49;43.29;102346.39;450189;115;922662;-75
2021/10/10 04:31:19;;;;;;;8.11;4.09;;;;;;;9.48;43.38;102341.95;450122;115;922690;-74
2021/10/10 04:32:22;;;;;;;5.73;4.28;;;;;;;9.49;43.43;102348.27;449985;116;930587;-73
2021/10/10 04:33:26;;;;;;;3.60;3.13;;;;;;;9.49;43.54;102350.98;450013;115;922628;-75
2021/10/10 04:34:29;;;;;;;3.99;3.31;;;;;;;9.48;43.59;102347.41;449731;115;930918;-73
2021/10/10 04:35:34;;;;;;;3.87;2.93;;;;;;;9.49;43.57;102348.27;450528;115;923054;-71
2021/10/10 04:36:39;;;;;;;4.99;3.15;;;;;;;9.48;43.54;102350.12;450085;115;922546;-75
2021/10/10 04:37:42;;;;;;;4.87;3.29;;;;;;;9.50;43.51;102355.42;450681;116;922914;-74
2021/10/10 04:38:46;;;;;;;4.13;3.04;;;;;;;9.50;43.56;102350.83;450290;115;923206;-74
2021/10/10 04:39:49;;;;;;;5.68;2.77;;;;;;;9.51;43.62;102357.12;450711;115;923132;-73
2021/10/10 04:40:53;;;;;;;3.01;2.12;;;;;;;9.52;43.68;102350.67;450486;115;922605;-74
2021/10/10 04:41:56;;;;;;;5.42;2.68;;;;;;;9.52;43.67;102350.67;451006;115;922519;-74
2021/10/10 04:43:00;;;;;;;4.51;2.43;;;;;;;9.53;43.64;102358.69;450402;115;930544;-75
2021/10/10 04:44:03;;;;;;;5.73;3.75;;;;;;;9.54;43.60;102354.06;450058;116;922478;-73
2021/10/10 04:45:07;;;;;;;3.90;2.95;;;;;;;9.55;43.59;102351.19;450395;115;922709;-74
2021/10/10 04:46:11;;;;;;;4.14;2.92;;;;;;;9.56;43.64;102358.34;450671;115;923131;-75
2021/10/10 04:47:15;;;;;;;3.98;2.65;;;;;;;9.57;43.64;102354.61;450841;115;923011;-74
2021/10/10 04:48:18;;;;;;;8.42;3.30;;;;;;;9.58;43.64;102359.04;450343;115;922958;-76
2021/10/10 04:49:22;;;;;;;4.33;2.36;;;;;;;9.59;43.68;102358.00;450215;116;922852;-72
2021/10/10 04:50:26;;;;;;;5.10;2.79;;;;;;;9.60;43.72;102356.13;449329;116;922684;-73
2021/10/10 04:51:29;;;;;;;3.34;3.01;;;;;;;9.60;43.72;102359.70;449493;115;930557;-76
2021/10/10 04:52:33;;;;;;;5.46;2.68;;;;;;;9.62;43.71;102363.13;449847;115;922725;-75
2021/10/10 04:53:36;;;;;;;5.47;3.23;;;;;;;9.63;43.69;102358.53;450196;115;923012;-76
2021/10/10 04:54:40;;;;;;;3.98;2.97;;;;;;;9.65;43.68;102366.55;449770;115;923077;-75
2021/10/10 04:55:43;;;;;;;4.51;3.21;;;;;;;9.66;43.66;102366.36;449149;115;930493;-74
2021/10/10 04:56:47;;;;;;;3.95;3.39;;;;;;;9.67;43.64;102364.50;450615;115;923076;-74
2021/10/10 04:57:51;;;;;;;3.61;2.86;;;;;;;9.69;43.66;102367.92;450481;116;922630;-75